Time;durP1;ratioP1;P1;durP2;ratioP2;P2;SDS_P1;SDS_P2;PMS_P1;PMS_P2;Temp;Humidity;BMP_temperature;BMP_pressure;BME280_temperature;BME280_humidity;BME280_pressure;Samples;Min_cycle;Max_cycle;Signal;HPM_P1;HPM_P2
2023/04/13 00:01:10;;;;;;;33.53;18.27;;;7.50;99.90;;;;;;5016083;28;20199;-81
2023/04/13 00:03:37;;;;;;;32.53;18.13;;;7.50;99.90;;;;;;5032998;28;20195;-79
2023/04/13 00:06:09;;;;;;;36.53;19.07;;;7.50;99.90;;;;;;5015926;28;20215;-79
2023/04/13 00:08:36;;;;;;;39.70;19.17;;;7.50;99.90;;;;;;5034060;28;20207;-76
2023/04/13 00:11:04;;;;;;;31.27;18.03;;;7.40;99.90;;;;;;5016107;28;20195;-77
2023/04/13 00:13:41;;;;;;;36.30;19.63;;;7.30;99.90;;;;;;5016149;28;20215;-78
2023/04/13 00:16:12;;;;;;;36.67;19.47;;;7.20;99.90;;;;;;5033740;28;20218;-81
2023/04/13 00:18:40;;;;;;;35.33;18.93;;;7.20;99.90;;;;;;5015783;28;20234;-81
2023/04/13 00:21:07;;;;;;;40.93;20.53;;;7.20;99.90;;;;;;5016109;28;20652;-76
2023/04/13 00:23:35;;;;;;;37.80;20.80;;;7.10;99.90;;;;;;5016166;28;20199;-81
2023/04/13 00:26:05;;;;;;;37.63;19.90;;;7.10;99.90;;;;;;5015702;28;20577;-80
2023/04/13 00:28:32;;;;;;;47.77;21.17;;;7.10;99.90;;;;;;4997448;28;20238;-80
2023/04/13 00:30:59;;;;;;;38.63;20.30;;;7.00;99.90;;;;;;5013508;28;20688;-80
2023/04/13 00:33:26;;;;;;;40.17;20.70;;;7.00;99.90;;;;;;4996093;28;20711;-79
2023/04/13 00:35:53;;;;;;;38.00;19.63;;;7.10;99.90;;;;;;5013612;28;20557;-81
2023/04/13 00:38:22;;;;;;;40.37;20.10;;;6.90;99.90;;;;;;4996416;28;20557;-81
2023/04/13 00:40:49;;;;;;;41.00;19.90;;;6.90;99.90;;;;;;5013769;28;20196;-81
2023/04/13 00:43:16;;;;;;;33.67;19.30;;;6.80;99.90;;;;;;4995883;28;20212;-80
2023/04/13 00:45:43;;;;;;;39.27;20.07;;;6.90;99.90;;;;;;4995972;28;20192;-82
2023/04/13 00:48:11;;;;;;;40.27;20.17;;;6.90;99.90;;;;;;4995546;28;20765;-80
2023/04/13 00:50:40;;;;;;;39.87;20.20;;;6.90;99.90;;;;;;5013484;28;20206;-79
2023/04/13 00:53:11;;;;;;;41.23;20.67;;;6.90;99.90;;;;;;4995261;28;20262;-81
2023/04/13 00:55:41;;;;;;;38.67;21.13;;;6.90;99.90;;;;;;4995349;28;20262;-79
2023/04/13 00:58:09;;;;;;;42.13;20.73;;;6.80;99.90;;;;;;4995467;28;20192;-80
2023/04/13 01:00:37;;;;;;;40.47;20.93;;;6.80;99.90;;;;;;5013193;28;20195;-79
2023/04/13 01:03:05;;;;;;;39.27;20.83;;;6.80;99.90;;;;;;4995467;28;20208;-77
2023/04/13 01:05:49;;;;;;;39.13;21.17;;;6.70;99.90;;;;;;4995472;28;20202;-77
2023/04/13 01:08:27;;;;;;;39.50;20.80;;;6.70;99.90;;;;;;5013354;28;20630;-78
2023/04/13 01:11:05;;;;;;;42.00;21.70;;;6.80;99.90;;;;;;4995369;28;20210;-78
2023/04/13 01:13:59;;;;;;;40.90;22.17;;;6.70;99.90;;;;;;4995251;28;20233;-78
2023/04/13 01:16:33;;;;;;;44.20;22.03;;;6.60;99.90;;;;;;4978627;28;20188;-77
2023/04/13 01:19:00;;;;;;;40.80;22.27;;;6.50;99.90;;;;;;5012277;28;20200;-78
2023/04/13 01:21:29;;;;;;;48.10;23.60;;;6.50;99.90;;;;;;4994921;28;20200;-80
2023/04/13 01:24:36;;;;;;;46.43;23.17;;;6.50;99.90;;;;;;5012756;28;20210;-77
2023/04/13 01:27:29;;;;;;;47.57;22.60;;;6.50;99.90;;;;;;4997358;28;20577;-77
2023/04/13 01:29:57;;;;;;;42.60;21.90;;;6.50;99.90;;;;;;4990597;28;20211;-78
2023/04/13 01:32:24;;;;;;;42.03;22.93;;;6.40;99.90;;;;;;4974104;28;20555;-77
2023/04/13 01:34:51;;;;;;;44.67;22.90;;;6.40;99.90;;;;;;4990608;28;20201;-78
2023/04/13 01:37:19;;;;;;;40.47;22.27;;;6.40;99.90;;;;;;4974010;28;20659;-77
2023/04/13 01:39:46;;;;;;;42.83;23.07;;;6.40;99.90;;;;;;4974380;28;20306;-78
2023/04/13 01:42:15;;;;;;;46.03;23.33;;;6.40;99.90;;;;;;4990004;28;20203;-77
2023/04/13 01:44:42;;;;;;;46.30;23.00;;;6.30;99.90;;;;;;4990482;28;20714;-78
2023/04/13 01:47:14;;;;;;;46.73;23.83;;;6.30;99.90;;;;;;4973805;28;20211;-78
2023/04/13 01:50:05;;;;;;;44.10;23.50;;;6.20;99.90;;;;;;4990403;28;20670;-76
2023/04/13 01:52:33;;;;;;;39.87;23.20;;;6.20;99.90;;;;;;4976539;28;20691;-76
2023/04/13 01:55:02;;;;;;;41.67;22.83;;;6.20;99.90;;;;;;4973721;28;20201;-76
2023/04/13 01:57:30;;;;;;;51.07;23.80;;;6.20;99.90;;;;;;4989936;28;20205;-76
2023/04/13 01:59:57;;;;;;;45.47;22.63;;;6.30;99.90;;;;;;4973816;28;20215;-76
2023/04/13 02:02:24;;;;;;;40.93;21.67;;;6.30;99.90;;;;;;4973474;28;20212;-77
2023/04/13 02:04:51;;;;;;;41.63;23.03;;;6.40;99.90;;;;;;4990123;28;20196;-78
2023/04/13 02:07:18;;;;;;;44.30;22.73;;;6.40;99.90;;;;;;5002963;28;20195;-77
2023/04/13 02:09:45;;;;;;;46.37;22.40;;;6.40;99.90;;;;;;5010670;28;20211;-77
2023/04/13 02:12:12;;;;;;;39.40;21.60;;;6.50;99.90;;;;;;5010758;28;21014;-78
2023/04/13 02:14:39;;;;;;;39.87;21.87;;;6.40;99.90;;;;;;5010693;28;20240;-76
2023/04/13 02:17:07;;;;;;;39.30;21.30;;;6.50;99.90;;;;;;5010333;28;20188;-78
2023/04/13 02:19:33;;;;;;;39.90;21.90;;;6.40;99.90;;;;;;5010492;28;20206;-78
2023/04/13 02:22:01;;;;;;;38.30;21.27;;;6.40;99.90;;;;;;5010357;28;20207;-78
2023/04/13 02:24:29;;;;;;;41.70;21.53;;;6.40;99.90;;;;;;5010561;28;20192;-78
2023/04/13 02:26:56;;;;;;;41.50;21.10;;;6.40;99.90;;;;;;5011527;28;20322;-78
2023/04/13 02:29:23;;;;;;;38.10;20.10;;;6.50;99.90;;;;;;4994274;28;20195;-77
2023/04/13 02:31:50;;;;;;;40.00;21.00;;;6.40;99.90;;;;;;4994158;28;20192;-78
2023/04/13 02:34:17;;;;;;;35.90;20.67;;;6.30;99.90;;;;;;4993949;28;20255;-78
2023/04/13 02:36:45;;;;;;;41.87;21.33;;;6.40;99.90;;;;;;4993818;28;20638;-78
2023/04/13 02:39:12;;;;;;;42.73;22.50;;;6.40;99.90;;;;;;4993712;28;20210;-77
2023/04/13 02:41:41;;;;;;;42.20;22.53;;;6.40;99.90;;;;;;4994405;28;20195;-79
2023/04/13 02:44:10;;;;;;;41.10;20.70;;;6.40;99.90;;;;;;4994124;28;20668;-78
2023/04/13 02:46:37;;;;;;;37.60;20.87;;;6.40;99.90;;;;;;4993659;28;20204;-78
2023/04/13 02:49:04;;;;;;;40.60;21.97;;;6.40;99.90;;;;;;4993949;28;20215;-78
2023/04/13 02:51:31;;;;;;;36.97;20.47;;;6.30;99.90;;;;;;5011226;28;20654;-78
2023/04/13 02:54:01;;;;;;;40.90;21.80;;;6.30;99.90;;;;;;5011280;28;20228;-78
2023/04/13 02:56:29;;;;;;;40.20;21.07;;;6.30;99.90;;;;;;4993460;28;20295;-78
2023/04/13 02:58:58;;;;;;;39.90;20.97;;;6.20;99.90;;;;;;5011418;28;20545;-77
2023/04/13 03:01:24;;;;;;;37.83;20.90;;;6.10;99.90;;;;;;4993594;28;20191;-77
2023/04/13 03:03:51;;;;;;;37.77;20.43;;;6.20;99.90;;;;;;4993498;28;20632;-77
2023/04/13 03:06:18;;;;;;;37.37;20.10;;;6.20;99.90;;;;;;4993526;28;20207;-79
2023/04/13 03:08:45;;;;;;;41.03;20.87;;;6.20;99.90;;;;;;5011178;28;20192;-78
2023/04/13 03:11:12;;;;;;;36.93;20.07;;;6.20;99.90;;;;;;5011771;28;20201;-79
2023/04/13 03:13:38;;;;;;;38.47;21.73;;;6.20;99.90;;;;;;4993629;28;20258;-78
2023/04/13 03:16:06;;;;;;;37.73;20.77;;;6.10;99.90;;;;;;5011268;28;20185;-78
2023/04/13 03:18:32;;;;;;;42.47;21.50;;;6.10;99.90;;;;;;4993356;28;20200;-79
2023/04/13 03:21:00;;;;;;;39.23;21.37;;;6.00;99.90;;;;;;4993595;28;20197;-80
2023/04/13 03:23:28;;;;;;;41.00;21.67;;;6.10;99.90;;;;;;4993984;28;20298;-80
2023/04/13 03:25:55;;;;;;;44.27;22.50;;;6.10;99.90;;;;;;5010890;28;20571;-81
2023/04/13 03:28:22;;;;;;;52.67;22.70;;;6.10;99.90;;;;;;5006226;28;20320;-78
2023/04/13 03:30:49;;;;;;;45.67;23.00;;;6.10;99.90;;;;;;5011017;28;20545;-78
2023/04/13 03:33:16;;;;;;;51.77;24.13;;;6.10;99.90;;;;;;5011567;28;20223;-78
2023/04/13 03:35:43;;;;;;;54.50;24.37;;;6.20;99.90;;;;;;4993485;28;20262;-78
2023/04/13 03:38:11;;;;;;;51.03;25.80;;;6.10;99.90;;;;;;5011288;28;20199;-80
2023/04/13 03:40:38;;;;;;;50.37;26.13;;;6.10;99.90;;;;;;5013458;28;20214;-81
2023/04/13 03:43:05;;;;;;;54.27;26.33;;;6.10;99.90;;;;;;5013067;28;20254;-80
2023/04/13 03:45:32;;;;;;;51.67;25.87;;;6.10;99.90;;;;;;5013574;28;20196;-80
2023/04/13 03:47:59;;;;;;;62.67;28.37;;;6.10;99.90;;;;;;5014366;28;20203;-80
2023/04/13 03:50:27;;;;;;;50.00;25.17;;;6.10;99.90;;;;;;5014826;28;20196;-80
2023/04/13 03:52:54;;;;;;;52.40;25.73;;;6.00;99.90;;;;;;5013514;28;20223;-80
2023/04/13 03:55:21;;;;;;;53.47;26.43;;;6.10;99.90;;;;;;5014571;28;20549;-80
2023/04/13 03:57:49;;;;;;;55.27;27.77;;;6.10;99.90;;;;;;5014315;28;20203;-80
2023/04/13 04:00:18;;;;;;;54.33;26.30;;;6.10;99.90;;;;;;5012971;28;20219;-80
2023/04/13 04:02:45;;;;;;;52.77;26.37;;;6.10;99.90;;;;;;5012898;28;20566;-79
2023/04/13 04:05:13;;;;;;;49.80;25.63;;;6.10;99.90;;;;;;5012789;28;20223;-79
2023/04/13 04:07:40;;;;;;;50.43;24.83;;;6.20;99.90;;;;;;5013032;28;20664;-79
2023/04/13 04:10:07;;;;;;;50.33;25.57;;;6.20;99.90;;;;;;5012830;28;20196;-80
2023/04/13 04:12:35;;;;;;;50.27;25.00;;;6.30;99.90;;;;;;5012913;28;20558;-79
2023/04/13 04:15:04;;;;;;;49.13;25.20;;;6.30;99.90;;;;;;5012706;28;20600;-79
2023/04/13 04:17:31;;;;;;;46.27;24.10;;;6.40;99.90;;;;;;5012571;28;20193;-79
2023/04/13 04:19:58;;;;;;;47.67;24.07;;;6.50;99.90;;;;;;5012329;28;20641;-79
2023/04/13 04:22:28;;;;;;;49.97;24.67;;;6.50;99.90;;;;;;5012877;28;20200;-78
2023/04/13 04:24:58;;;;;;;46.53;24.27;;;6.60;99.90;;;;;;5013895;28;20191;-78
2023/04/13 04:27:25;;;;;;;46.87;23.70;;;6.70;99.90;;;;;;5021785;28;20643;-79
2023/04/13 04:29:57;;;;;;;45.23;23.50;;;6.60;99.90;;;;;;5033681;28;20210;-78
2023/04/13 04:32:24;;;;;;;47.27;23.97;;;6.70;99.90;;;;;;5015237;28;20720;-78
2023/04/13 04:34:51;;;;;;;45.87;22.20;;;6.70;99.90;;;;;;5015343;28;20275;-78
2023/04/13 04:37:22;;;;;;;43.67;23.87;;;6.70;99.90;;;;;;5015451;28;20195;-78
2023/04/13 04:39:49;;;;;;;42.60;22.43;;;6.70;99.90;;;;;;5033133;28;20194;-79
2023/04/13 04:42:17;;;;;;;42.77;23.20;;;6.80;99.90;;;;;;5033338;28;20210;-79
2023/04/13 04:44:48;;;;;;;43.20;21.93;;;6.90;99.90;;;;;;5015672;28;20192;-79
2023/04/13 04:47:16;;;;;;;49.67;23.97;;;7.00;99.90;;;;;;5015136;28;20291;-79
2023/04/13 04:49:43;;;;;;;39.93;20.83;;;7.10;99.90;;;;;;5015158;28;20195;-79
2023/04/13 04:52:11;;;;;;;40.77;22.00;;;7.10;99.90;;;;;;5033192;28;20219;-79
2023/04/13 04:54:38;;;;;;;42.90;21.20;;;7.20;99.90;;;;;;5015423;28;20258;-79
2023/04/13 04:57:09;;;;;;;42.77;20.87;;;7.30;99.90;;;;;;5032991;28;20540;-79
2023/04/13 04:59:36;;;;;;;39.70;19.43;;;7.40;99.90;;;;;;5032968;28;20226;-79
2023/04/13 05:02:03;;;;;;;33.13;18.40;;;7.40;99.90;;;;;;5014953;28;20278;-78
2023/04/13 05:04:32;;;;;;;36.83;19.10;;;7.30;99.90;;;;;;5016002;28;20626;-79
2023/04/13 05:06:59;;;;;;;35.27;18.63;;;7.20;99.90;;;;;;5032426;28;20604;-80
2023/04/13 05:09:26;;;;;;;33.67;18.10;;;7.30;99.90;;;;;;5033203;28;20298;-80
2023/04/13 05:11:55;;;;;;;34.27;17.97;;;7.50;99.90;;;;;;5033124;28;20205;-80
2023/04/13 05:14:22;;;;;;;37.93;18.37;;;7.60;99.90;;;;;;5032646;28;20306;-78
2023/04/13 05:16:50;;;;;;;30.80;17.00;;;7.60;99.90;;;;;;5014635;28;20204;-80
2023/04/13 05:19:17;;;;;;;39.47;17.60;;;7.70;99.90;;;;;;5032168;28;20214;-79
2023/04/13 05:21:43;;;;;;;32.40;17.83;;;7.80;99.90;;;;;;5014678;28;20199;-78
2023/04/13 05:24:10;;;;;;;34.77;18.23;;;7.90;99.90;;;;;;5014813;28;20200;-79
2023/04/13 05:26:42;;;;;;;33.03;18.17;;;7.90;99.90;;;;;;5012234;28;20548;-79
2023/04/13 05:29:09;;;;;;;31.67;17.67;;;8.10;99.90;;;;;;4994642;28;20291;-79
2023/04/13 05:31:36;;;;;;;34.63;18.47;;;8.30;99.90;;;;;;5012525;28;20196;-77
2023/04/13 05:34:03;;;;;;;33.00;18.17;;;8.40;99.90;;;;;;5011961;28;20295;-77
2023/04/13 05:36:31;;;;;;;32.27;17.17;;;8.50;99.90;;;;;;4994236;28;20199;-77
2023/04/13 05:38:58;;;;;;;33.50;17.53;;;8.50;99.90;;;;;;4994784;28;20204;-77
2023/04/13 05:41:26;;;;;;;34.60;17.90;;;8.50;99.90;;;;;;5012147;28;20283;-77
2023/04/13 05:43:53;;;;;;;32.33;17.63;;;8.50;99.90;;;;;;4994418;28;20315;-77
2023/04/13 05:46:20;;;;;;;33.60;17.97;;;8.50;99.90;;;;;;4994307;28;20591;-77
2023/04/13 05:48:47;;;;;;;32.30;17.57;;;8.60;99.90;;;;;;5012341;28;20215;-76
2023/04/13 05:51:17;;;;;;;36.60;17.57;;;8.70;99.90;;;;;;4994830;28;20203;-76
2023/04/13 05:53:45;;;;;;;29.73;17.13;;;8.70;99.90;;;;;;4994779;28;20227;-77
2023/04/13 05:56:13;;;;;;;34.77;17.87;;;8.80;99.90;;;;;;4994496;28;20188;-77
2023/04/13 05:58:39;;;;;;;37.13;18.27;;;8.90;99.90;;;;;;4993964;28;20196;-77
2023/04/13 06:01:11;;;;;;;32.53;17.63;;;8.90;99.90;;;;;;4993977;28;20211;-77
2023/04/13 06:03:37;;;;;;;34.37;17.87;;;8.90;99.90;;;;;;5011548;28;20188;-76
2023/04/13 06:06:05;;;;;;;34.17;17.67;;;9.00;99.90;;;;;;4994262;28;20258;-76
2023/04/13 06:08:32;;;;;;;32.17;17.40;;;9.10;99.90;;;;;;4994034;28;20624;-76
2023/04/13 06:10:59;;;;;;;31.30;17.07;;;9.10;99.90;;;;;;5012119;28;20211;-77
2023/04/13 06:13:26;;;;;;;30.20;17.10;;;9.20;99.90;;;;;;4993728;28;20679;-76
2023/04/13 06:15:53;;;;;;;31.30;17.60;;;9.30;99.90;;;;;;4994119;28;20212;-77
2023/04/13 06:18:20;;;;;;;43.83;19.80;;;9.30;99.90;;;;;;4993902;28;20633;-77
2023/04/13 06:20:47;;;;;;;39.13;19.53;;;9.40;99.90;;;;;;4994471;28;20222;-79
2023/04/13 06:23:14;;;;;;;42.03;19.87;;;9.50;99.90;;;;;;4994606;28;20192;-79
2023/04/13 06:25:41;;;;;;;40.60;19.70;;;9.50;99.90;;;;;;4993986;28;20299;-78
2023/04/13 06:28:08;;;;;;;36.63;18.93;;;9.60;99.90;;;;;;4993771;28;20228;-76
2023/04/13 06:30:36;;;;;;;37.93;18.40;;;9.60;99.90;;;;;;4992549;28;20571;-78
2023/04/13 06:33:04;;;;;;;35.90;17.93;;;9.70;99.90;;;;;;4999870;28;20215;-79
2023/04/13 06:35:32;;;;;;;38.23;18.40;;;9.70;99.90;;;;;;4963951;28;20217;-78
2023/04/13 06:38:00;;;;;;;30.50;16.80;;;9.80;99.90;;;;;;5002085;28;20192;-78
2023/04/13 06:40:27;;;;;;;30.53;16.67;;;9.80;99.90;;;;;;4990853;28;20199;-78
2023/04/13 06:42:55;;;;;;;26.53;15.27;;;9.90;99.90;;;;;;4993702;28;20199;-78
2023/04/13 06:45:21;;;;;;;26.43;15.40;;;10.00;99.90;;;;;;4994273;28;20246;-77
2023/04/13 06:47:51;;;;;;;25.80;15.23;;;10.00;99.90;;;;;;4993495;28;20207;-78
2023/04/13 06:50:18;;;;;;;28.90;14.80;;;10.10;99.90;;;;;;4993883;28;20271;-78
2023/04/13 06:52:46;;;;;;;26.53;13.60;;;10.10;99.90;;;;;;4993646;28;20540;-77
2023/04/13 06:55:14;;;;;;;24.07;13.97;;;10.20;99.90;;;;;;4993587;28;20224;-78
2023/04/13 06:57:41;;;;;;;27.00;14.23;;;10.30;99.90;;;;;;4993869;28;20188;-79
2023/04/13 07:00:09;;;;;;;23.70;12.37;;;10.30;99.90;;;;;;5011200;28;20287;-79
2023/04/13 07:02:54;;;;;;;23.20;12.87;;;10.30;99.90;;;;;;4994296;28;20668;-79
2023/04/13 07:05:21;;;;;;;23.70;12.03;;;10.40;99.90;;;;;;4993534;28;20262;-78
2023/04/13 07:07:51;;;;;;;23.17;12.10;;;10.40;99.90;;;;;;4993546;28;20211;-77
2023/04/13 07:10:18;;;;;;;23.60;12.73;;;10.40;99.90;;;;;;5011618;28;20203;-77
2023/04/13 07:12:45;;;;;;;24.67;12.97;;;10.60;99.90;;;;;;4996166;28;20204;-78
2023/04/13 07:15:12;;;;;;;19.93;11.13;;;10.70;99.90;;;;;;4997720;28;20213;-77
2023/04/13 07:17:39;;;;;;;19.43;10.97;;;10.80;99.90;;;;;;4997083;28;20200;-77
2023/04/13 07:20:10;;;;;;;17.87;10.60;;;10.80;99.90;;;;;;5015269;28;20622;-77
2023/04/13 07:22:37;;;;;;;19.97;11.33;;;10.80;99.90;;;;;;4997357;28;20696;-77
2023/04/13 07:25:05;;;;;;;18.93;10.57;;;10.80;99.90;;;;;;4997358;28;20188;-78
2023/04/13 07:27:32;;;;;;;18.67;11.17;;;10.90;99.90;;;;;;5014468;28;20696;-77
2023/04/13 07:30:00;;;;;;;25.40;11.53;;;11.00;99.90;;;;;;4997151;28;20196;-78
2023/04/13 07:32:28;;;;;;;16.87;9.80;;;11.10;99.90;;;;;;5014796;28;20195;-77
2023/04/13 07:35:00;;;;;;;15.17;9.03;;;11.30;99.90;;;;;;4997011;28;20703;-77
2023/04/13 07:37:27;;;;;;;16.80;9.60;;;11.30;99.90;;;;;;4997172;28;20219;-77
2023/04/13 07:39:54;;;;;;;16.63;9.80;;;11.40;99.90;;;;;;4996868;28;20208;-77
2023/04/13 07:42:21;;;;;;;18.57;10.57;;;11.50;99.90;;;;;;4997072;28;20646;-77
2023/04/13 07:44:48;;;;;;;18.23;10.13;;;11.70;99.90;;;;;;4996929;28;20215;-78
2023/04/13 07:47:15;;;;;;;17.10;10.13;;;11.70;99.90;;;;;;4996795;28;20203;-78
2023/04/13 07:49:42;;;;;;;18.07;10.27;;;11.70;99.90;;;;;;4997032;28;20228;-77
2023/04/13 07:52:09;;;;;;;17.83;10.43;;;11.80;99.90;;;;;;4996364;28;20602;-78
2023/04/13 07:54:37;;;;;;;17.07;10.33;;;11.90;99.90;;;;;;4996757;28;20216;-77
2023/04/13 07:57:04;;;;;;;15.03;9.97;;;12.00;99.90;;;;;;4996257;28;20181;-77
2023/04/13 07:59:31;;;;;;;21.67;10.27;;;12.10;99.90;;;;;;4996731;28;20203;-77
2023/04/13 08:01:58;;;;;;;16.83;10.40;;;12.10;99.90;;;;;;4996815;28;20204;-77
2023/04/13 08:04:25;;;;;;;14.10;9.20;;;12.10;99.90;;;;;;4996837;28;20263;-78
2023/04/13 08:06:52;;;;;;;15.23;9.53;;;12.20;99.90;;;;;;4996149;28;20243;-77
2023/04/13 08:09:20;;;;;;;16.90;9.57;;;12.20;99.90;;;;;;5013918;28;20199;-78
2023/04/13 08:11:48;;;;;;;17.60;9.97;;;12.70;99.90;;;;;;5014684;28;20278;-78
2023/04/13 08:14:15;;;;;;;15.37;9.17;;;13.00;99.90;;;;;;5014248;28;20555;-77
2023/04/13 08:16:42;;;;;;;13.47;8.63;;;13.50;99.90;;;;;;4996479;28;20200;-78
2023/04/13 08:19:09;;;;;;;13.37;9.03;;;13.80;99.90;;;;;;4996627;28;20210;-77
2023/04/13 08:21:39;;;;;;;13.50;9.23;;;14.40;99.90;;;;;;5014147;28;20223;-78
2023/04/13 08:24:06;;;;;;;13.13;9.43;;;15.00;99.90;;;;;;4995803;28;20196;-78
2023/04/13 08:26:34;;;;;;;12.17;8.67;;;15.60;99.90;;;;;;4995782;28;20231;-78
2023/04/13 08:29:00;;;;;;;12.80;8.73;;;16.10;99.90;;;;;;5013387;28;20617;-77
2023/04/13 08:31:28;;;;;;;13.47;8.77;;;16.20;99.90;;;;;;5013557;28;20680;-76
2023/04/13 08:33:55;;;;;;;14.93;9.07;;;15.90;99.90;;;;;;4995692;28;20215;-77
2023/04/13 08:36:23;;;;;;;11.40;8.37;;;16.20;99.90;;;;;;4995958;28;20212;-77
2023/04/13 08:38:50;;;;;;;12.30;8.27;;;16.60;99.90;;;;;;4996077;28;20211;-77
2023/04/13 08:41:20;;;;;;;13.33;8.70;;;16.70;99.90;;;;;;5013269;28;20188;-77
2023/04/13 08:43:50;;;;;;;13.13;8.83;;;16.80;99.90;;;;;;5013562;28;20242;-77
2023/04/13 08:46:20;;;;;;;12.67;8.83;;;17.00;99.90;;;;;;4995795;28;20214;-77
2023/04/13 08:48:51;;;;;;;15.20;9.03;;;17.30;99.90;;;;;;5012804;28;20203;-77
2023/04/13 08:51:25;;;;;;;13.07;8.90;;;17.70;99.90;;;;;;5013740;28;20207;-77
2023/04/13 08:53:52;;;;;;;11.67;8.13;;;17.80;99.90;;;;;;4995322;28;20239;-77
2023/04/13 08:56:21;;;;;;;12.07;8.03;;;18.10;99.90;;;;;;4995384;28;20578;-77
2023/04/13 08:59:05;;;;;;;12.13;8.10;;;18.10;99.90;;;;;;5013544;28;20211;-78
2023/04/13 09:01:36;;;;;;;11.90;8.13;;;17.90;99.90;;;;;;4995435;28;20490;-79
2023/04/13 09:04:09;;;;;;;12.70;7.80;;;18.00;99.90;;;;;;4995477;28;20276;-78
2023/04/13 09:06:39;;;;;;;11.97;8.57;;;18.20;99.90;;;;;;5012691;28;20199;-75
2023/04/13 09:09:13;;;;;;;11.77;8.40;;;18.50;99.90;;;;;;4995016;28;20196;-77
2023/04/13 09:11:41;;;;;;;12.20;8.07;;;18.80;99.90;;;;;;4995364;28;20204;-77
2023/04/13 09:14:09;;;;;;;12.20;8.17;;;19.00;99.50;;;;;;4994884;28;20270;-77
2023/04/13 09:16:40;;;;;;;16.27;9.00;;;19.40;98.70;;;;;;5012621;28;20204;-77
2023/04/13 09:19:08;;;;;;;15.83;8.83;;;19.50;94.30;;;;;;5012544;28;20243;-77
2023/04/13 09:21:43;;;;;;;11.90;8.23;;;19.20;94.80;;;;;;5012925;28;20534;-76
2023/04/13 09:24:11;;;;;;;12.60;8.37;;;19.40;97.40;;;;;;5012849;28;20204;-77
2023/04/13 09:26:43;;;;;;;14.97;8.90;;;19.70;96.30;;;;;;4994512;28;20230;-76
2023/04/13 09:29:15;;;;;;;12.07;8.93;;;20.20;94.20;;;;;;5014766;28;20199;-77
2023/04/13 09:31:42;;;;;;;13.37;8.93;;;20.20;93.80;;;;;;5014389;28;20207;-76
2023/04/13 09:34:12;;;;;;;12.77;8.80;;;20.40;92.60;;;;;;5014182;28;20200;-77
2023/04/13 09:36:40;;;;;;;12.02;8.70;;;20.70;93.20;;;;;;5013375;28;20203;-77
2023/04/13 09:39:27;;;;;;;13.30;9.03;;;21.20;91.10;;;;;;5014000;28;20711;-76
2023/04/13 09:41:56;;;;;;;12.50;8.67;;;21.40;85.30;;;;;;5014177;28;20191;-77
2023/04/13 09:44:33;;;;;;;15.70;9.30;;;21.40;85.60;;;;;;5014014;28;20198;-77
2023/04/13 09:47:03;;;;;;;20.47;9.77;;;21.30;85.90;;;;;;5013939;28;20675;-77
2023/04/13 09:49:37;;;;;;;12.63;9.30;;;20.70;83.40;;;;;;5014124;28;20191;-78
2023/04/13 09:52:07;;;;;;;22.10;10.00;;;20.80;86.80;;;;;;5014053;28;20199;-76
2023/04/13 09:54:40;;;;;;;12.60;8.77;;;21.00;86.50;;;;;;4998099;28;20265;-77
2023/04/13 09:57:07;;;;;;;11.87;8.23;;;21.30;84.90;;;;;;5031776;28;20199;-77
2023/04/13 09:59:34;;;;;;;11.60;8.43;;;21.60;83.80;;;;;;5013979;28;20250;-77
2023/04/13 10:02:03;;;;;;;13.20;8.68;;;21.70;80.80;;;;;;5014048;28;20200;-77
2023/04/13 10:04:30;;;;;;;11.10;8.27;;;22.00;78.80;;;;;;5031608;28;20690;-77
2023/04/13 10:06:57;;;;;;;15.85;8.40;;;22.10;74.90;;;;;;5013833;28;20202;-77
2023/04/13 10:09:25;;;;;;;12.73;9.10;;;22.60;74.20;;;;;;5013600;28;20199;-77
2023/04/13 10:11:55;;;;;;;12.35;8.45;;;22.60;71.10;;;;;;5014071;28;20203;-77
2023/04/13 10:14:26;;;;;;;12.20;8.40;;;22.50;71.80;;;;;;5013750;28;20207;-77
2023/04/13 10:17:07;;;;;;;14.10;8.68;;;22.20;71.80;;;;;;5013541;28;20203;-78
2023/04/13 10:19:42;;;;;;;11.43;8.25;;;22.50;73.30;;;;;;5014091;28;20202;-77
2023/04/13 10:22:10;;;;;;;11.30;7.97;;;22.60;71.70;;;;;;4997168;28;20273;-77
2023/04/13 10:24:41;;;;;;;10.55;8.25;;;22.90;71.40;;;;;;5013646;28;20200;-77
2023/04/13 10:27:17;;;;;;;10.02;7.63;;;23.00;70.50;;;;;;5009855;28;20236;-77
2023/04/13 10:29:46;;;;;;;11.05;7.63;;;23.70;69.40;;;;;;4993806;28;20721;-77
2023/04/13 10:32:20;;;;;;;14.95;8.35;;;23.90;65.70;;;;;;4994587;28;20219;-78
2023/04/13 10:34:47;;;;;;;11.65;7.20;;;24.10;63.10;;;;;;4993639;28;20712;-76
2023/04/13 10:37:27;;;;;;;11.77;8.23;;;24.00;63.70;;;;;;4993860;28;20204;-78
2023/04/13 10:40:06;;;;;;;11.02;8.40;;;23.30;62.90;;;;;;5012203;28;20638;-79
2023/04/13 10:42:45;;;;;;;10.75;8.27;;;22.80;64.80;;;;;;5011503;28;20200;-79
2023/04/13 10:45:20;;;;;;;10.63;8.07;;;22.60;65.30;;;;;;5011472;28;20643;-77
2023/04/13 10:47:47;;;;;;;9.95;7.80;;;22.70;65.80;;;;;;4996043;28;20207;-77
2023/04/13 10:50:21;;;;;;;10.35;7.03;;;22.80;64.70;;;;;;4997552;28;20196;-76
2023/04/13 10:53:06;;;;;;;9.85;6.50;;;22.90;62.00;;;;;;5015765;28;20227;-78
2023/04/13 10:55:33;;;;;;;9.77;6.95;;;22.90;59.90;;;;;;4997616;28;20757;-77
2023/04/13 10:58:01;;;;;;;9.40;6.75;;;22.50;58.80;;;;;;5014813;28;20709;-78
2023/04/13 11:00:29;;;;;;;11.40;6.93;;;22.30;61.10;;;;;;4997750;28;20204;-77
2023/04/13 11:03:15;;;;;;;9.13;6.30;;;22.50;61.00;;;;;;5014783;28;20298;-77
2023/04/13 11:06:04;;;;;;;11.13;6.38;;;22.90;60.40;;;;;;5015095;28;20577;-76
2023/04/13 11:08:33;;;;;;;9.07;6.70;;;23.40;59.00;;;;;;4997620;28;20250;-77
2023/04/13 11:11:00;;;;;;;11.68;6.80;;;23.90;58.80;;;;;;5014892;28;20195;-77
2023/04/13 11:13:28;;;;;;;10.77;6.82;;;24.20;57.10;;;;;;4997553;28;20192;-76
2023/04/13 11:16:02;;;;;;;10.15;7.07;;;24.20;56.80;;;;;;5014856;28;20254;-75
2023/04/13 11:18:30;;;;;;;11.13;6.50;;;24.40;56.70;;;;;;5014748;28;20195;-76
2023/04/13 11:20:57;;;;;;;8.88;6.50;;;24.70;56.00;;;;;;4997198;28;20672;-76
2023/04/13 11:23:24;;;;;;;10.98;6.53;;;25.20;56.60;;;;;;4980913;28;20196;-76
2023/04/13 11:25:59;;;;;;;8.73;6.78;;;25.60;55.70;;;;;;4997317;28;20227;-76
2023/04/13 11:28:38;;;;;;;9.30;6.72;;;25.70;53.80;;;;;;5007888;28;20632;-77
2023/04/13 11:31:06;;;;;;;10.65;6.75;;;26.10;53.80;;;;;;5014559;28;20215;-77
2023/04/13 11:33:34;;;;;;;11.00;7.10;;;26.20;52.40;;;;;;5013733;28;20204;-77
2023/04/13 11:36:06;;;;;;;10.15;7.00;;;26.30;52.20;;;;;;5013201;28;20223;-76
2023/04/13 11:38:33;;;;;;;10.00;6.80;;;26.10;52.30;;;;;;5015007;28;20207;-77
2023/04/13 11:41:02;;;;;;;8.13;6.65;;;26.40;51.80;;;;;;5014309;28;20211;-76
2023/04/13 11:43:44;;;;;;;9.75;6.38;;;26.80;51.00;;;;;;5013313;28;20211;-77
2023/04/13 11:46:14;;;;;;;8.77;6.60;;;26.90;50.30;;;;;;5013355;28;20625;-77
2023/04/13 11:48:42;;;;;;;7.78;6.30;;;26.70;50.20;;;;;;5012824;28;20729;-76
2023/04/13 11:51:10;;;;;;;8.38;6.13;;;27.20;50.30;;;;;;5013091;28;20362;-76
2023/04/13 11:53:38;;;;;;;9.13;6.57;;;27.40;49.50;;;;;;5012592;28;20192;-76
2023/04/13 11:56:06;;;;;;;8.27;6.20;;;27.80;48.80;;;;;;5014048;28;20208;-76
2023/04/13 11:58:33;;;;;;;9.77;6.10;;;28.10;48.10;;;;;;5011798;28;20211;-76
2023/04/13 12:01:08;;;;;;;9.85;6.07;;;28.50;47.10;;;;;;5012709;28;20639;-76
2023/04/13 12:03:42;;;;;;;6.97;5.32;;;28.40;46.10;;;;;;5012923;28;20207;-75
2023/04/13 12:06:31;;;;;;;7.13;5.68;;;28.90;45.50;;;;;;5013977;28;20551;-76
2023/04/13 12:09:04;;;;;;;7.50;5.65;;;28.80;45.40;;;;;;5012866;28;20527;-76
2023/04/13 12:11:40;;;;;;;8.85;5.28;;;28.90;45.10;;;;;;5014344;28;20227;-76
2023/04/13 12:14:21;;;;;;;6.05;5.00;;;29.00;44.60;;;;;;5014098;28;20223;-76
2023/04/13 12:17:12;;;;;;;10.70;5.13;;;28.90;43.20;;;;;;5012690;28;20204;-76
2023/04/13 12:20:00;;;;;;;6.85;5.20;;;28.60;42.10;;;;;;5013648;28;20207;-77
2023/04/13 12:22:37;;;;;;;6.65;4.97;;;28.60;42.50;;;;;;5012588;28;20200;-77
2023/04/13 12:25:22;;;;;;;10.35;5.30;;;28.60;43.70;;;;;;5013660;28;20196;-77
2023/04/13 12:27:52;;;;;;;7.60;5.38;;;28.40;42.00;;;;;;5013417;28;20236;-76
2023/04/13 12:30:21;;;;;;;8.40;5.40;;;28.00;42.70;;;;;;4996125;28;20200;-76
2023/04/13 12:32:52;;;;;;;6.53;5.03;;;28.00;43.50;;;;;;4995897;28;20646;-76
2023/04/13 12:35:19;;;;;;;6.40;5.03;;;28.00;44.20;;;;;;5013895;28;20216;-75
2023/04/13 12:37:47;;;;;;;7.53;4.43;;;27.90;42.90;;;;;;5013311;28;20194;-76
2023/04/13 12:40:15;;;;;;;7.20;5.13;;;28.00;42.80;;;;;;5013486;28;20203;-75
2023/04/13 12:42:46;;;;;;;7.38;5.28;;;27.80;40.60;;;;;;4995781;28;20413;-75
2023/04/13 12:45:14;;;;;;;8.25;4.97;;;27.20;41.10;;;;;;4995599;28;20208;-75
2023/04/13 12:47:45;;;;;;;6.80;4.80;;;26.70;41.70;;;;;;4995605;28;20196;-76
2023/04/13 12:50:13;;;;;;;5.50;4.43;;;26.40;42.60;;;;;;4995526;28;20382;-75